Current | Forecast
Updated: 1:00 AM JST on December 15, 2017
Observed at Saga Airport, Japan
Temperature 43°F
Windchill 38°F
Humidity 70%
Dew Point 34°F
Wind North at 8 mph
Pressure 30.30 in (Steady)
Conditions Mostly Cloudy
Visibility 6.2 miles
UV 0 out of 16
Clouds (FEW) : 4000 ft
Mostly Cloudy (BKN) : 10000 ft
Yesterday's Maximum 52°F
Yesterday's Minimum 32°F approx.
Yesterday's Heating Degree Days 23 approx.
Sunrise7:15 AM JST
Sunset5:14 PM JST
Moon Rise4:11 AM JST
Moon Set3:26 PM JST
Moon PhaseMoon Phase
Waning Crescent
Raw METARMETAR RJFS 141600Z 36007KT 9999 FEW040 BKN100 06/01 Q1026


Monday
. High: 75° F.
Tuesday
. High: 77° F.
Wednesday
. High: 71° F.
Thursday
. High: 71° F.
Friday
. High: 66° F.
Saturday
. High: 75° F.
Sunday
. High: 78° F.
Monday
. High: 80° F.

Units: English | Metric

Find the Weather for any City, State or Zipcode, or Country:

U.S. State List | Severe Weather | Tropical Storms | Ski Conditions
United States | Canada | Central America | South America | Asia | Europe | Australia | Africa | Islands

Weather Underground

© Copyright 2017
The Weather Company, LLC